createdAt,value
2019-03-18T00:00:38.609Z,98656.78
2019-03-18T00:06:43.178Z,98666.14
2019-03-18T00:12:47.746Z,98668.63
2019-03-18T00:18:52.384Z,98670.49
2019-03-18T00:24:57.004Z,98666.61
2019-03-18T00:31:01.591Z,98654.42
2019-03-18T00:37:06.297Z,98661.04
2019-03-18T00:43:10.842Z,98653.80
2019-03-18T00:49:15.379Z,98664.27
2019-03-18T00:55:20.003Z,98651.71
2019-03-18T01:01:24.549Z,98649.89
2019-03-18T01:07:29.253Z,98652.74
2019-03-18T01:13:34.751Z,98660.56
2019-03-18T01:19:39.327Z,98669.02
2019-03-18T01:25:43.877Z,98665.19
2019-03-18T01:31:48.420Z,98673.94
2019-03-18T01:37:53.067Z,98674.78
2019-03-18T01:43:57.633Z,98671.93
2019-03-18T01:50:02.182Z,98677.58
2019-03-18T01:56:06.749Z,98686.19
2019-03-18T02:02:11.295Z,98685.38
2019-03-18T02:08:15.843Z,98692.98
2019-03-18T02:14:20.392Z,98695.98
2019-03-18T02:20:24.958Z,98709.23
2019-03-18T02:26:29.520Z,98697.77
2019-03-18T02:32:34.184Z,98688.80
2019-03-18T02:38:38.723Z,98690.67
2019-03-18T02:44:43.272Z,98692.17
2019-03-18T02:50:47.816Z,98692.28
2019-03-18T02:56:52.372Z,98694.30
2019-03-18T03:02:56.941Z,98682.20
2019-03-18T03:09:01.485Z,98679.77
2019-03-18T03:15:12.265Z,98685.58
2019-03-18T03:21:16.796Z,98686.58
2019-03-18T03:27:21.352Z,98691.39
2019-03-18T03:33:25.922Z,98703.99
2019-03-18T03:39:30.514Z,98698.52
2019-03-18T03:45:35.112Z,98701.66
2019-03-18T03:51:39.698Z,98701.17
2019-03-18T03:57:44.327Z,98702.98
2019-03-18T04:03:48.947Z,98708.91
2019-03-18T04:09:53.573Z,98696.59
2019-03-18T04:15:58.123Z,98707.39
2019-03-18T04:22:03.592Z,98704.23
2019-03-18T04:28:08.304Z,98727.90
2019-03-18T04:34:12.835Z,98722.58
2019-03-18T04:40:17.468Z,98738.13
2019-03-18T04:46:22.009Z,98737.64
2019-03-18T04:52:26.622Z,98738.75
2019-03-18T04:58:31.226Z,98747.33
2019-03-18T05:04:35.783Z,98765.68
2019-03-18T05:10:40.345Z,98778.27
2019-03-18T05:16:44.904Z,98793.42
2019-03-18T05:22:49.484Z,98798.39
2019-03-18T05:28:54.088Z,98813.79
2019-03-18T05:34:58.652Z,98814.30
2019-03-18T05:41:03.259Z,98823.91
2019-03-18T05:47:07.800Z,98832.34
2019-03-18T05:53:12.356Z,98844.44
2019-03-18T05:59:16.978Z,98843.44
2019-03-18T06:05:21.531Z,98847.24
2019-03-18T06:11:26.174Z,98863.00
2019-03-18T06:17:30.834Z,98877.73
2019-03-18T06:23:35.487Z,98888.47
2019-03-18T06:29:40.013Z,98897.60
2019-03-18T06:35:44.654Z,98909.71
2019-03-18T06:41:49.224Z,98909.23
2019-03-18T06:48:04.063Z,98905.39
2019-03-18T06:54:00.121Z,98912.55
2019-03-18T07:00:08.125Z,98917.84
2019-03-18T07:06:12.649Z,98923.48
2019-03-18T07:12:17.287Z,98933.60
2019-03-18T07:18:21.895Z,98944.86
2019-03-18T07:24:26.447Z,98964.60
2019-03-18T07:30:31.062Z,98972.22
2019-03-18T07:36:35.724Z,98973.19
2019-03-18T07:42:40.365Z,98983.75
2019-03-18T07:48:44.911Z,98985.54
2019-03-18T07:54:49.469Z,99006.78
2019-03-18T08:00:54.064Z,99009.77
2019-03-18T08:06:58.626Z,99023.99
2019-03-18T08:13:03.249Z,99025.91
2019-03-18T08:19:07.809Z,99034.19
2019-03-18T08:25:12.507Z,99042.54
2019-03-18T08:31:17.154Z,99042.38
2019-03-18T08:37:21.780Z,99044.76
2019-03-18T08:43:26.334Z,99044.73
2019-03-18T08:49:30.924Z,99044.71
2019-03-18T08:55:35.532Z,99067.62
2019-03-18T09:01:40.157Z,99072.05
2019-03-18T09:07:44.720Z,99072.88
2019-03-18T09:13:49.286Z,99074.35
2019-03-18T09:19:53.842Z,99077.59
2019-03-18T09:25:58.381Z,99083.22
2019-03-18T09:32:03.128Z,99070.95
2019-03-18T09:38:08.170Z,99081.22
2019-03-18T09:44:12.720Z,99086.17
2019-03-18T09:50:17.602Z,99097.31
2019-03-18T09:56:22.171Z,99105.91
2019-03-18T10:02:26.778Z,99122.70
2019-03-18T10:08:31.471Z,99123.36
2019-03-18T10:14:36.030Z,99127.15
2019-03-18T10:20:40.650Z,99135.85
2019-03-18T10:26:45.212Z,99141.94
2019-03-18T10:32:49.782Z,99144.34
2019-03-18T10:38:54.340Z,99146.75
2019-03-18T10:44:58.960Z,99164.63
2019-03-18T10:51:03.515Z,99154.69
2019-03-18T10:57:08.083Z,99163.88
2019-03-18T11:03:12.775Z,99165.71
2019-03-18T11:09:17.480Z,99181.67
2019-03-18T11:15:23.339Z,99172.32
2019-03-18T11:21:27.885Z,99176.94
2019-03-18T11:27:32.795Z,99171.13
2019-03-18T11:33:37.422Z,99172.43
2019-03-18T11:39:42.004Z,99183.11
2019-03-18T11:45:46.605Z,99196.92
2019-03-18T11:51:51.169Z,99206.73
2019-03-18T11:57:55.788Z,99205.62
2019-03-18T12:04:00.366Z,99195.80
2019-03-18T12:10:11.810Z,99190.23
2019-03-18T12:16:16.430Z,99199.93
2019-03-18T12:22:20.992Z,99187.95
2019-03-18T12:28:25.545Z,99205.22
2019-03-18T12:34:30.101Z,99191.70
2019-03-18T12:40:34.650Z,99198.20
2019-03-18T12:46:39.237Z,99199.17
2019-03-18T12:52:44.137Z,99182.25
2019-03-18T12:58:48.855Z,99190.73
2019-03-18T13:04:53.420Z,99198.17
2019-03-18T13:10:57.973Z,99201.10
2019-03-18T13:17:02.543Z,99212.43
2019-03-18T13:23:07.107Z,99226.31
2019-03-18T13:29:11.730Z,99217.59
2019-03-18T13:35:16.524Z,99231.25
2019-03-18T13:41:21.079Z,99242.91
2019-03-18T13:47:25.834Z,99247.17
2019-03-18T13:53:30.387Z,99250.23
2019-03-18T13:59:35.095Z,99273.17
2019-03-18T14:05:39.663Z,99288.09
2019-03-18T14:11:44.209Z,99297.63
2019-03-18T14:17:48.782Z,99312.73
2019-03-18T14:23:53.477Z,99311.94
2019-03-18T14:29:58.039Z,99314.02
2019-03-18T14:36:02.621Z,99318.88
2019-03-18T14:42:07.174Z,99340.14
2019-03-18T14:48:11.856Z,99335.44
2019-03-18T14:54:16.415Z,99342.55
2019-03-18T15:00:24.470Z,99337.40
2019-03-18T15:06:29.034Z,99344.14
2019-03-18T15:12:34.530Z,99341.86
2019-03-18T15:18:39.077Z,99352.11
2019-03-18T15:24:43.619Z,99370.83
2019-03-18T15:30:48.202Z,99382.08
2019-03-18T15:36:52.771Z,99385.46
2019-03-18T15:42:57.526Z,99387.36
2019-03-18T15:49:02.089Z,99394.30
2019-03-18T15:55:07.841Z,99401.14
2019-03-18T16:01:12.412Z,99395.81
2019-03-18T16:07:17.046Z,99419.20
2019-03-18T16:13:21.684Z,99420.47
2019-03-18T16:19:26.242Z,99421.33
2019-03-18T16:25:30.926Z,99425.59
2019-03-18T16:31:35.489Z,99435.48
2019-03-18T16:37:40.048Z,99447.48
2019-03-18T16:43:44.609Z,99449.45
2019-03-18T16:49:49.176Z,99461.67
2019-03-18T16:55:53.730Z,99470.20
2019-03-18T17:01:58.294Z,99478.60
2019-03-18T17:08:02.926Z,99492.55
2019-03-18T17:14:07.510Z,99499.34
2019-03-18T17:20:19.020Z,99501.70
2019-03-18T17:26:23.586Z,99514.63
2019-03-18T17:32:28.132Z,99531.19
2019-03-18T17:38:32.728Z,99550.53
2019-03-18T17:44:37.282Z,99560.21
2019-03-18T17:50:41.854Z,99572.50
2019-03-18T17:56:46.429Z,99581.17
2019-03-18T18:02:52.686Z,99586.60
2019-03-18T18:08:57.405Z,99598.16
2019-03-18T18:15:02.027Z,99616.12
2019-03-18T18:21:06.578Z,99604.47
2019-03-18T18:27:11.201Z,99614.13
2019-03-18T18:33:15.835Z,99622.10
2019-03-18T18:39:20.385Z,99629.57
2019-03-18T18:45:25.004Z,99649.37
2019-03-18T18:51:29.631Z,99662.78
2019-03-18T18:57:34.322Z,99669.90
2019-03-18T19:03:38.900Z,99670.64
2019-03-18T19:09:43.451Z,99683.05
2019-03-18T19:15:48.028Z,99682.80
2019-03-18T19:21:52.639Z,99692.08
2019-03-18T19:27:57.203Z,99689.03
2019-03-18T19:34:01.784Z,99690.99
2019-03-18T19:40:11.242Z,99697.56
2019-03-18T19:46:15.834Z,99706.37
2019-03-18T19:52:20.401Z,99701.26
2019-03-18T19:58:24.936Z,99708.03
2019-03-18T20:04:29.586Z,99724.13
2019-03-18T20:10:34.158Z,99735.30
2019-03-18T20:16:38.724Z,99737.87
2019-03-18T20:22:43.447Z,99748.00
2019-03-18T20:28:48.011Z,99763.34
2019-03-18T20:34:52.571Z,99770.02
2019-03-18T20:40:57.129Z,99778.23
2019-03-18T20:47:01.696Z,99783.14
2019-03-18T20:53:06.521Z,99790.38
2019-03-18T20:59:11.190Z,99795.51
2019-03-18T21:05:15.742Z,99809.39
2019-03-18T21:11:20.376Z,99813.91
2019-03-18T21:17:24.950Z,99822.77
2019-03-18T21:23:29.511Z,99839.41
2019-03-18T21:29:34.080Z,99842.95
2019-03-18T21:35:38.719Z,99845.77
2019-03-18T21:41:43.282Z,99852.75
2019-03-18T21:47:47.977Z,99873.12
2019-03-18T21:53:52.531Z,99888.41
2019-03-18T21:59:57.618Z,99883.58
2019-03-18T22:06:02.332Z,99883.36
2019-03-18T22:12:07.072Z,99867.36
2019-03-18T22:18:11.679Z,99876.67
2019-03-18T22:24:16.244Z,99884.16
2019-03-18T22:30:21.028Z,99878.36
2019-03-18T22:36:25.573Z,99879.55
2019-03-18T22:42:30.215Z,99887.95
2019-03-18T22:48:34.767Z,99890.38
2019-03-18T22:54:39.438Z,99899.39
2019-03-18T23:00:45.718Z,99896.74
2019-03-18T23:06:50.304Z,99902.95
2019-03-18T23:12:54.877Z,99898.60
2019-03-18T23:18:59.521Z,99915.56
2019-03-18T23:25:07.535Z,99927.25
2019-03-18T23:31:12.139Z,99921.25
2019-03-18T23:37:16.707Z,99934.78
2019-03-18T23:43:21.275Z,99939.84
2019-03-18T23:49:25.829Z,99939.67
2019-03-18T23:55:30.459Z,99949.69
